Time;durP1;ratioP1;P1;durP2;ratioP2;P2;SDS_P1;SDS_P2;PMS_P1;PMS_P2;Temp;Humidity;BMP_temperature;BMP_pressure;BME280_temperature;BME280_humidity;BME280_pressure;Samples;Min_cycle;Max_cycle;Signal;HPM_P1;HPM_P2
2021/01/27 00:01:36;;;;;;;13.57;11.60;;;1.70;99.90;;;;;;5096769;28;20237;-69
2021/01/27 00:04:03;;;;;;;13.27;11.20;;;1.60;99.90;;;;;;5110526;28;20232;-69
2021/01/27 00:06:30;;;;;;;15.30;11.47;;;1.60;99.90;;;;;;5110636;28;20198;-70
2021/01/27 00:08:56;;;;;;;16.80;11.17;;;1.60;99.90;;;;;;5110352;28;20734;-70
2021/01/27 00:11:22;;;;;;;18.60;12.07;;;1.60;99.90;;;;;;5109954;27;20208;-70
2021/01/27 00:13:48;;;;;;;15.67;11.93;;;1.60;99.90;;;;;;5110685;28;20213;-70
2021/01/27 00:16:15;;;;;;;21.60;13.87;;;1.70;99.90;;;;;;5110625;28;20216;-70
2021/01/27 00:18:41;;;;;;;15.30;12.33;;;1.70;99.90;;;;;;5099031;28;20207;-70
2021/01/27 00:21:08;;;;;;;14.97;11.87;;;1.70;99.90;;;;;;5089796;28;20854;-70
2021/01/27 00:23:34;;;;;;;16.67;12.17;;;1.60;99.90;;;;;;5091953;28;20207;-70
2021/01/27 00:26:01;;;;;;;15.13;12.47;;;1.70;99.90;;;;;;5110445;28;20214;-70
2021/01/27 00:28:27;;;;;;;15.50;11.87;;;1.70;99.90;;;;;;5110260;28;20210;-70
2021/01/27 00:30:53;;;;;;;15.23;12.03;;;1.60;99.90;;;;;;5110163;28;20557;-70
2021/01/27 00:33:20;;;;;;;16.50;12.33;;;1.70;99.90;;;;;;5110346;28;20210;-70
2021/01/27 00:35:49;;;;;;;13.87;10.90;;;1.70;99.90;;;;;;5095116;27;20290;-70
2021/01/27 00:38:18;;;;;;;13.90;11.57;;;1.70;99.90;;;;;;5089884;28;20579;-70
2021/01/27 00:40:45;;;;;;;15.63;11.07;;;1.70;99.90;;;;;;5089482;28;20234;-70
2021/01/27 00:43:12;;;;;;;15.03;11.53;;;1.80;99.90;;;;;;5089724;28;20203;-70
2021/01/27 00:45:39;;;;;;;16.43;11.47;;;1.80;99.90;;;;;;5089195;28;20207;-70
2021/01/27 00:48:06;;;;;;;16.43;11.63;;;1.80;99.90;;;;;;5089873;28;20260;-70
2021/01/27 00:50:33;;;;;;;14.50;11.43;;;1.80;99.90;;;;;;5089084;28;20210;-70
2021/01/27 00:52:59;;;;;;;18.17;12.10;;;1.90;99.90;;;;;;5089152;28;20198;-70
2021/01/27 00:55:29;;;;;;;12.47;10.37;;;1.90;99.90;;;;;;5088758;28;20210;-70
2021/01/27 00:57:56;;;;;;;13.87;10.20;;;1.90;99.90;;;;;;5088847;28;20238;-70
2021/01/27 01:00:25;;;;;;;13.87;10.67;;;2.00;99.90;;;;;;5088888;28;20743;-70
2021/01/27 01:02:52;;;;;;;15.13;10.30;;;2.00;99.90;;;;;;5089326;28;20241;-70
2021/01/27 01:05:23;;;;;;;12.73;9.77;;;1.90;99.90;;;;;;5089317;28;20210;-70
2021/01/27 01:07:51;;;;;;;14.20;11.10;;;1.80;99.90;;;;;;5088902;28;20195;-70
2021/01/27 01:10:21;;;;;;;15.93;10.93;;;1.80;99.90;;;;;;5089068;28;20241;-70
2021/01/27 01:12:48;;;;;;;14.70;9.47;;;1.80;99.90;;;;;;5089451;28;20203;-70
2021/01/27 01:15:15;;;;;;;14.17;10.00;;;1.80;99.90;;;;;;5089257;28;20210;-71
2021/01/27 01:17:42;;;;;;;14.10;9.90;;;1.80;99.90;;;;;;5088943;28;20268;-71
2021/01/27 01:20:14;;;;;;;10.57;9.10;;;1.80;99.90;;;;;;5088936;28;20272;-70
2021/01/27 01:22:44;;;;;;;13.40;9.47;;;1.70;99.90;;;;;;5100835;28;20222;-70
2021/01/27 01:25:12;;;;;;;10.77;9.10;;;1.70;99.90;;;;;;5088804;28;20272;-70
2021/01/27 01:27:38;;;;;;;13.77;9.83;;;1.70;99.90;;;;;;5088594;28;20210;-70
2021/01/27 01:30:10;;;;;;;11.40;9.27;;;1.70;99.90;;;;;;5088727;28;20198;-70
2021/01/27 01:32:36;;;;;;;13.17;9.57;;;1.80;99.90;;;;;;5104894;28;20197;-70
2021/01/27 01:35:04;;;;;;;15.33;9.77;;;1.70;99.90;;;;;;5108814;28;20660;-71
2021/01/27 01:37:30;;;;;;;12.03;9.30;;;1.70;99.90;;;;;;5090638;28;20203;-71
2021/01/27 01:39:56;;;;;;;15.67;10.27;;;1.80;99.90;;;;;;5088783;28;20209;-71
2021/01/27 01:42:22;;;;;;;13.40;9.67;;;1.70;99.90;;;;;;5088506;28;20261;-71
2021/01/27 01:44:49;;;;;;;12.70;9.50;;;1.70;99.90;;;;;;5088287;28;20199;-71
2021/01/27 01:47:16;;;;;;;14.20;9.47;;;1.70;99.90;;;;;;5088926;28;20555;-71
2021/01/27 01:49:42;;;;;;;11.70;8.97;;;1.60;99.90;;;;;;5107176;28;20198;-71
2021/01/27 01:52:09;;;;;;;14.67;8.87;;;1.60;99.90;;;;;;5109001;28;20313;-70
2021/01/27 01:54:39;;;;;;;11.37;9.10;;;1.50;99.90;;;;;;5108665;28;20206;-70
2021/01/27 01:57:09;;;;;;;12.33;9.10;;;1.50;99.90;;;;;;5108169;28;20217;-69
2021/01/27 01:59:38;;;;;;;13.73;9.63;;;1.40;99.90;;;;;;5101532;28;20544;-70
2021/01/27 02:02:08;;;;;;;12.83;9.60;;;1.40;99.90;;;;;;5088290;28;20226;-70
2021/01/27 02:04:44;;;;;;;15.57;10.03;;;1.50;99.90;;;;;;5088197;28;20229;-70
2021/01/27 02:07:10;;;;;;;12.87;9.17;;;1.40;99.90;;;;;;5088286;28;20275;-70
2021/01/27 02:09:37;;;;;;;10.17;9.07;;;1.30;99.90;;;;;;5088060;28;20227;-70
2021/01/27 02:12:31;;;;;;;11.57;9.17;;;1.30;99.90;;;;;;5095921;28;20290;-71
2021/01/27 02:15:14;;;;;;;13.40;9.23;;;1.30;99.90;;;;;;5107755;28;20205;-70
2021/01/27 02:17:46;;;;;;;10.67;8.63;;;1.20;99.90;;;;;;5102163;28;20248;-70
2021/01/27 02:20:40;;;;;;;13.60;9.67;;;1.20;99.90;;;;;;5088330;28;20187;-70
2021/01/27 02:23:46;;;;;;;10.73;9.07;;;1.10;99.90;;;;;;5088228;28;20261;-70
2021/01/27 02:26:57;;;;;;;15.70;9.80;;;1.10;99.90;;;;;;5088248;28;20201;-71
2021/01/27 02:30:11;;;;;;;13.53;9.97;;;1.00;99.90;;;;;;5087810;28;20614;-70
2021/01/27 02:32:58;;;;;;;13.97;9.60;;;1.00;99.90;;;;;;5076786;28;20203;-70
2021/01/27 02:35:29;;;;;;;13.97;9.50;;;0.90;99.90;;;;;;5087943;28;20645;-70
2021/01/27 02:37:59;;;;;;;12.63;9.90;;;0.90;99.90;;;;;;5088215;28;20195;-70
2021/01/27 02:40:30;;;;;;;13.97;9.63;;;1.00;99.90;;;;;;5087862;28;20599;-70
2021/01/27 02:43:03;;;;;;;13.77;10.33;;;1.00;99.90;;;;;;5088062;28;20214;-71
2021/01/27 02:45:33;;;;;;;15.30;10.27;;;0.90;99.90;;;;;;5087813;28;20260;-71
2021/01/27 02:48:03;;;;;;;12.70;10.07;;;0.90;99.90;;;;;;5099188;28;20224;-70
2021/01/27 02:50:37;;;;;;;13.57;10.53;;;0.90;99.90;;;;;;5108094;28;20202;-71
2021/01/27 02:53:11;;;;;;;14.13;9.97;;;0.80;99.90;;;;;;5107962;28;20194;-71
2021/01/27 02:55:47;;;;;;;14.83;10.60;;;0.80;99.90;;;;;;5108028;28;20202;-71
2021/01/27 02:58:18;;;;;;;17.23;11.00;;;0.80;99.90;;;;;;5109978;28;20233;-71
2021/01/27 03:00:46;;;;;;;15.63;10.70;;;0.80;99.90;;;;;;5094028;28;20199;-71
2021/01/27 03:03:18;;;;;;;14.23;10.90;;;0.70;99.90;;;;;;5091730;28;20209;-71
2021/01/27 03:05:49;;;;;;;16.87;10.97;;;0.70;99.90;;;;;;5091819;28;20202;-71
2021/01/27 03:08:19;;;;;;;15.37;10.77;;;0.60;99.90;;;;;;5091762;28;20223;-71
2021/01/27 03:10:53;;;;;;;16.23;11.23;;;0.60;99.90;;;;;;5091203;28;20206;-71
2021/01/27 03:13:19;;;;;;;15.33;10.83;;;0.60;99.90;;;;;;5102670;28;20335;-71
2021/01/27 03:15:46;;;;;;;15.27;11.57;;;0.60;99.90;;;;;;5091436;28;20203;-71
2021/01/27 03:18:17;;;;;;;19.20;12.10;;;0.60;99.90;;;;;;5091014;28;20615;-71
2021/01/27 03:20:47;;;;;;;16.60;11.37;;;0.50;99.90;;;;;;5091134;28;20195;-71
2021/01/27 03:23:18;;;;;;;19.10;11.97;;;0.50;99.90;;;;;;5091483;28;20198;-70
2021/01/27 03:25:53;;;;;;;15.50;11.23;;;0.40;99.90;;;;;;5108704;28;20198;-71
2021/01/27 03:28:24;;;;;;;18.93;11.50;;;0.50;99.90;;;;;;5105711;28;20202;-71
2021/01/27 03:30:51;;;;;;;16.50;12.00;;;0.40;99.90;;;;;;5090888;28;20206;-71
2021/01/27 03:33:20;;;;;;;19.43;12.90;;;0.50;99.90;;;;;;5090828;28;20755;-71
2021/01/27 03:35:50;;;;;;;19.60;12.80;;;0.50;99.90;;;;;;5091155;28;20256;-71
2021/01/27 03:38:23;;;;;;;18.27;11.60;;;0.50;99.90;;;;;;5110692;28;20210;-71
2021/01/27 03:40:55;;;;;;;21.53;13.03;;;0.50;99.90;;;;;;5111091;28;20572;-71
2021/01/27 03:43:27;;;;;;;17.60;12.30;;;0.60;99.90;;;;;;5111228;28;20206;-71
2021/01/27 03:46:00;;;;;;;21.53;13.50;;;0.60;99.90;;;;;;5111130;28;20254;-71
2021/01/27 03:48:30;;;;;;;19.33;13.33;;;0.60;99.90;;;;;;5092853;28;20241;-71
2021/01/27 03:51:00;;;;;;;19.20;13.70;;;0.60;99.90;;;;;;5090772;28;20198;-70
2021/01/27 03:53:27;;;;;;;18.20;13.43;;;0.60;99.90;;;;;;5110072;28;20202;-71
2021/01/27 03:56:01;;;;;;;18.67;13.80;;;0.60;99.90;;;;;;5110860;28;20202;-70
2021/01/27 03:58:33;;;;;;;19.37;13.03;;;0.70;99.90;;;;;;5110296;28;20230;-70
2021/01/27 04:01:04;;;;;;;19.47;13.50;;;0.70;99.90;;;;;;5104546;28;20195;-70
2021/01/27 04:03:31;;;;;;;20.17;13.20;;;0.70;99.90;;;;;;5094266;28;20199;-70
2021/01/27 04:05:58;;;;;;;23.30;13.90;;;0.70;99.90;;;;;;5104187;28;20198;-70
2021/01/27 04:08:24;;;;;;;20.27;13.73;;;0.70;99.90;;;;;;5098541;28;20226;-70
2021/01/27 04:10:51;;;;;;;20.80;14.53;;;0.80;99.90;;;;;;5095290;28;20202;-70
2021/01/27 04:13:17;;;;;;;21.87;14.13;;;0.80;99.90;;;;;;5090271;28;20199;-70
2021/01/27 04:15:44;;;;;;;22.63;14.17;;;0.70;99.90;;;;;;5090030;28;20210;-70
2021/01/27 04:18:10;;;;;;;24.37;15.50;;;0.70;99.90;;;;;;5094211;28;20233;-70
2021/01/27 04:20:37;;;;;;;23.23;14.37;;;0.80;99.90;;;;;;5087401;28;20207;-70
2021/01/27 04:23:04;;;;;;;22.57;14.47;;;0.80;99.90;;;;;;5088882;28;20355;-70
2021/01/27 04:25:31;;;;;;;23.13;15.27;;;0.80;99.90;;;;;;5095345;28;21035;-70
2021/01/27 04:27:57;;;;;;;20.80;14.60;;;0.80;99.90;;;;;;5106937;28;20210;-70
2021/01/27 04:30:25;;;;;;;20.60;14.47;;;0.80;99.90;;;;;;5106490;28;20201;-70
2021/01/27 04:32:52;;;;;;;39.33;30.03;;;0.80;99.90;;;;;;5096378;28;20209;-70
2021/01/27 04:35:19;;;;;;;33.57;26.83;;;0.90;99.90;;;;;;5096317;28;20207;-70
2021/01/27 04:37:46;;;;;;;22.37;16.33;;;0.90;99.90;;;;;;5100572;28;20208;-70
2021/01/27 04:40:16;;;;;;;21.67;15.10;;;1.00;99.90;;;;;;5106281;28;20728;-70
2021/01/27 04:42:43;;;;;;;22.23;16.20;;;1.00;99.90;;;;;;5105841;28;20263;-70
2021/01/27 04:45:10;;;;;;;22.83;15.93;;;1.00;99.90;;;;;;5105918;28;20211;-70
2021/01/27 04:47:45;;;;;;;23.33;16.10;;;1.10;99.90;;;;;;5106180;28;20216;-70
2021/01/27 04:50:19;;;;;;;24.30;15.57;;;1.10;99.90;;;;;;5106275;28;20197;-70
2021/01/27 04:52:57;;;;;;;23.63;16.40;;;1.10;99.90;;;;;;5096924;28;20198;-70
2021/01/27 04:55:35;;;;;;;27.30;17.00;;;1.10;99.90;;;;;;5085114;28;20207;-70
2021/01/27 04:58:13;;;;;;;24.13;16.30;;;1.10;99.90;;;;;;5085215;28;20230;-70
2021/01/27 05:00:49;;;;;;;25.73;16.93;;;1.10;99.90;;;;;;5085939;28;20202;-70
2021/01/27 05:03:59;;;;;;;23.80;17.33;;;1.10;99.90;;;;;;5112789;27;20221;-70
2021/01/27 05:06:30;;;;;;;26.00;17.20;;;1.10;99.90;;;;;;5071994;28;20199;-70
2021/01/27 05:09:05;;;;;;;28.13;17.20;;;1.20;99.90;;;;;;5110919;27;20229;-70
2021/01/27 05:11:33;;;;;;;23.60;16.73;;;1.20;99.90;;;;;;5117032;27;20240;-70
2021/01/27 05:14:03;;;;;;;24.60;17.47;;;1.20;99.90;;;;;;5117541;27;20194;-69
2021/01/27 05:16:31;;;;;;;27.47;17.90;;;1.30;99.90;;;;;;5119666;27;20579;-70
2021/01/27 05:19:00;;;;;;;26.53;17.57;;;1.20;99.90;;;;;;5113703;27;20205;-69
2021/01/27 05:21:31;;;;;;;26.37;17.33;;;1.20;99.90;;;;;;5116372;27;20626;-70
2021/01/27 05:23:58;;;;;;;25.17;17.80;;;1.30;99.90;;;;;;5119786;27;20191;-69
2021/01/27 05:26:37;;;;;;;27.93;17.57;;;1.30;99.90;;;;;;5114225;27;20210;-70
2021/01/27 05:29:12;;;;;;;28.90;18.23;;;1.30;99.90;;;;;;5113933;27;20632;-70
2021/01/27 05:31:59;;;;;;;29.40;18.97;;;1.30;99.90;;;;;;5119947;27;20197;-70
2021/01/27 05:34:31;;;;;;;29.20;17.93;;;1.30;99.90;;;;;;5113566;27;20193;-70
2021/01/27 05:36:58;;;;;;;28.00;17.30;;;1.30;99.90;;;;;;5119191;27;20202;-70
2021/01/27 05:39:28;;;;;;;27.00;18.20;;;1.30;99.90;;;;;;5117673;27;20240;-70
2021/01/27 05:42:19;;;;;;;28.20;18.63;;;1.30;99.90;;;;;;5116137;27;20259;-70
2021/01/27 05:44:46;;;;;;;27.57;17.63;;;1.30;99.90;;;;;;5090532;28;20268;-70
2021/01/27 05:47:27;;;;;;;28.33;17.40;;;1.40;99.90;;;;;;5087907;28;20211;-70
2021/01/27 05:49:54;;;;;;;24.67;17.90;;;1.40;99.90;;;;;;5087766;28;20283;-70
2021/01/27 05:52:24;;;;;;;27.13;17.43;;;1.40;99.90;;;;;;5088084;28;20209;-70
2021/01/27 05:54:50;;;;;;;26.03;17.47;;;1.40;99.90;;;;;;5087289;28;20207;-70
2021/01/27 05:57:20;;;;;;;30.70;19.57;;;1.40;99.90;;;;;;5086865;28;20688;-69
2021/01/27 05:59:49;;;;;;;25.97;17.23;;;1.40;99.90;;;;;;5089977;28;20199;-69
2021/01/27 06:02:16;;;;;;;22.23;17.23;;;1.40;99.90;;;;;;5087556;28;20238;-69
2021/01/27 06:04:56;;;;;;;24.10;18.00;;;1.40;99.90;;;;;;5087164;28;20218;-69
2021/01/27 06:07:24;;;;;;;26.13;17.40;;;1.40;99.90;;;;;;5087335;28;20234;-69
2021/01/27 06:09:53;;;;;;;25.73;17.93;;;1.40;99.90;;;;;;5087222;28;20211;-69
2021/01/27 06:12:28;;;;;;;28.33;18.30;;;1.40;99.90;;;;;;5087249;28;20444;-69
2021/01/27 06:15:14;;;;;;;22.23;16.57;;;1.40;99.90;;;;;;5087262;28;20194;-69
2021/01/27 06:17:42;;;;;;;23.20;17.03;;;1.50;99.90;;;;;;5087253;28;20203;-69
2021/01/27 06:20:28;;;;;;;23.20;17.33;;;1.50;99.90;;;;;;5107677;28;20263;-69
2021/01/27 06:23:33;;;;;;;22.23;16.13;;;1.50;99.90;;;;;;5122915;28;20216;-69
2021/01/27 06:26:22;;;;;;;25.07;17.00;;;1.50;99.90;;;;;;5090502;28;20202;-69
2021/01/27 06:29:02;;;;;;;23.87;16.90;;;1.50;99.90;;;;;;5110262;28;20194;-69
2021/01/27 06:31:45;;;;;;;24.77;16.37;;;1.50;99.90;;;;;;5116304;27;20198;-69
2021/01/27 06:34:47;;;;;;;22.67;15.40;;;1.60;99.90;;;;;;5109238;27;20202;-69
2021/01/27 06:37:31;;;;;;;25.37;16.60;;;1.60;99.90;;;;;;5104437;27;20202;-69
2021/01/27 06:40:36;;;;;;;22.70;16.77;;;1.60;99.90;;;;;;5119680;27;20193;-70
2021/01/27 06:43:36;;;;;;;21.97;16.63;;;1.60;99.90;;;;;;5091892;27;20229;-69
2021/01/27 06:46:19;;;;;;;33.37;27.07;;;1.50;99.90;;;;;;5113898;27;20194;-70
2021/01/27 06:49:27;;;;;;;27.30;19.57;;;1.60;99.90;;;;;;5119588;27;20701;-70
2021/01/27 06:52:10;;;;;;;24.27;16.57;;;1.60;99.90;;;;;;5113369;27;20313;-69
2021/01/27 06:54:53;;;;;;;25.83;16.60;;;1.60;99.90;;;;;;5100976;27;20641;-69
2021/01/27 06:57:26;;;;;;;26.50;16.60;;;1.60;99.90;;;;;;5118107;27;20241;-69
2021/01/27 07:00:18;;;;;;;26.37;19.07;;;1.60;99.90;;;;;;5117051;27;20211;-69
2021/01/27 07:03:23;;;;;;;23.10;16.87;;;1.60;99.90;;;;;;5118041;27;20301;-69
2021/01/27 07:06:13;;;;;;;23.23;16.27;;;1.60;99.90;;;;;;5116299;27;20206;-69
2021/01/27 07:09:08;;;;;;;24.57;16.63;;;1.60;99.90;;;;;;5110774;28;20226;-69
2021/01/27 07:11:44;;;;;;;22.43;16.37;;;1.50;99.90;;;;;;5108709;28;20695;-69
2021/01/27 07:14:39;;;;;;;21.77;16.70;;;1.60;99.90;;;;;;5111153;28;20190;-69
2021/01/27 07:17:46;;;;;;;22.37;16.67;;;1.60;99.90;;;;;;5110425;28;20209;-69
2021/01/27 07:20:19;;;;;;;24.50;16.67;;;1.50;99.90;;;;;;5111351;28;20190;-69
2021/01/27 07:22:54;;;;;;;25.43;16.53;;;1.50;99.90;;;;;;5101541;28;20238;-69
2021/01/27 07:25:29;;;;;;;21.87;15.40;;;1.50;99.90;;;;;;5090006;28;20612;-69
2021/01/27 07:28:00;;;;;;;23.57;16.83;;;1.50;99.90;;;;;;5089891;28;20194;-69
2021/01/27 07:30:36;;;;;;;23.03;15.77;;;1.50;99.90;;;;;;5089840;28;20187;-69
2021/01/27 07:33:09;;;;;;;21.67;14.73;;;1.50;99.90;;;;;;5090008;28;20187;-69
2021/01/27 07:35:40;;;;;;;19.40;14.67;;;1.50;99.90;;;;;;5095422;28;20190;-69
2021/01/27 07:38:13;;;;;;;23.93;15.43;;;1.60;99.90;;;;;;5092957;28;20236;-69
2021/01/27 07:40:44;;;;;;;22.60;16.27;;;1.60;99.90;;;;;;5089790;28;20196;-69
2021/01/27 07:43:14;;;;;;;23.47;14.43;;;1.70;99.90;;;;;;5114256;27;20213;-69
2021/01/27 07:45:47;;;;;;;20.80;15.07;;;1.70;99.90;;;;;;5121099;27;20254;-69
2021/01/27 07:48:20;;;;;;;20.10;15.13;;;1.70;99.90;;;;;;5119936;27;20239;-69
2021/01/27 07:50:52;;;;;;;20.30;14.30;;;1.80;99.90;;;;;;5124272;27;20194;-70
2021/01/27 07:53:26;;;;;;;24.90;14.87;;;1.90;99.90;;;;;;5116109;27;20555;-70
2021/01/27 07:56:05;;;;;;;19.43;14.10;;;1.80;99.90;;;;;;5115519;27;20196;-70
2021/01/27 07:58:38;;;;;;;23.90;15.17;;;1.80;99.90;;;;;;5116895;27;20579;-69
2021/01/27 08:01:12;;;;;;;17.07;13.43;;;1.80;99.90;;;;;;5121154;27;20186;-69
2021/01/27 08:03:44;;;;;;;19.00;14.37;;;1.80;99.90;;;;;;5118704;27;20194;-69
2021/01/27 08:06:14;;;;;;;21.43;14.00;;;1.90;99.90;;;;;;5118366;27;20205;-69
2021/01/27 08:08:50;;;;;;;19.67;13.90;;;1.80;99.90;;;;;;5119913;27;20632;-69
2021/01/27 08:11:21;;;;;;;21.23;13.70;;;1.80;99.90;;;;;;5115601;27;20940;-69
2021/01/27 08:13:47;;;;;;;25.90;14.70;;;1.80;99.90;;;;;;5089116;28;20684;-69
2021/01/27 08:16:38;;;;;;;18.47;14.27;;;1.70;99.90;;;;;;5089811;28;20221;-69
2021/01/27 08:19:30;;;;;;;20.77;15.17;;;1.70;99.90;;;;;;5089215;28;20190;-69
2021/01/27 08:22:07;;;;;;;22.23;14.67;;;1.70;99.90;;;;;;5093495;28;20210;-69
2021/01/27 08:24:56;;;;;;;18.03;13.57;;;1.70;99.90;;;;;;5096132;28;20686;-69
2021/01/27 08:27:40;;;;;;;18.07;14.80;;;1.80;99.90;;;;;;5099296;28;20198;-69
2021/01/27 08:30:22;;;;;;;18.47;14.10;;;1.80;99.90;;;;;;5088537;28;20629;-69
2021/01/27 08:32:49;;;;;;;20.10;14.13;;;1.80;99.90;;;;;;5086182;28;20531;-70
2021/01/27 08:35:57;;;;;;;22.47;18.23;;;1.80;99.90;;;;;;5088771;28;20575;-70
2021/01/27 08:38:29;;;;;;;21.33;17.07;;;1.80;99.90;;;;;;5088494;28;20195;-70
2021/01/27 08:40:56;;;;;;;21.47;14.13;;;1.90;99.90;;;;;;5090148;28;20199;-70
2021/01/27 08:43:28;;;;;;;19.93;13.97;;;1.80;99.90;;;;;;5110886;27;20230;-70
2021/01/27 08:45:55;;;;;;;20.80;15.57;;;1.80;99.90;;;;;;5115094;27;20186;-69
2021/01/27 08:48:46;;;;;;;19.97;14.87;;;1.80;99.90;;;;;;5118468;27;20199;-69
2021/01/27 08:51:41;;;;;;;22.90;15.37;;;1.90;99.90;;;;;;5123249;27;20190;-70
2021/01/27 08:54:28;;;;;;;19.67;14.40;;;1.90;99.90;;;;;;5121503;27;20562;-70
2021/01/27 08:57:21;;;;;;;18.27;13.57;;;2.00;99.90;;;;;;5110877;27;20186;-70
2021/01/27 08:59:59;;;;;;;19.37;14.13;;;2.00;99.90;;;;;;5110615;27;20235;-70
2021/01/27 09:02:59;;;;;;;17.33;14.20;;;2.10;99.90;;;;;;5113914;27;20235;-70
2021/01/27 09:05:43;;;;;;;18.10;14.37;;;2.20;99.90;;;;;;5116427;27;20191;-69
2021/01/27 09:08:31;;;;;;;19.43;14.30;;;2.20;99.90;;;;;;5116056;27;20222;-70
2021/01/27 09:10:59;;;;;;;21.33;15.43;;;2.30;99.90;;;;;;5114044;27;20200;-69
2021/01/27 09:13:35;;;;;;;21.90;15.40;;;2.30;99.90;;;;;;5108456;28;20271;-70
2021/01/27 09:16:05;;;;;;;20.03;15.73;;;2.30;99.90;;;;;;5109303;28;20194;-70
2021/01/27 09:18:33;;;;;;;21.10;15.40;;;2.40;99.90;;;;;;5108218;28;20217;-69
2021/01/27 09:21:10;;;;;;;21.20;15.43;;;2.40;99.90;;;;;;5109523;28;20255;-70
2021/01/27 09:23:36;;;;;;;20.90;15.57;;;2.50;99.90;;;;;;5108985;27;20229;-70
2021/01/27 09:26:14;;;;;;;19.43;15.43;;;2.60;99.90;;;;;;5108877;28;20205;-70
2021/01/27 09:28:41;;;;;;;18.40;14.43;;;2.60;99.90;;;;;;5109150;28;20194;-69
2021/01/27 09:31:13;;;;;;;19.07;14.93;;;2.70;99.90;;;;;;5108965;28;20220;-70
2021/01/27 09:33:40;;;;;;;17.77;14.63;;;2.70;99.90;;;;;;5109043;28;20194;-70
2021/01/27 09:36:13;;;;;;;17.33;13.97;;;2.80;99.90;;;;;;5109202;28;20201;-70
2021/01/27 09:38:39;;;;;;;17.30;13.97;;;2.90;99.90;;;;;;5109086;28;20194;-70
2021/01/27 09:41:09;;;;;;;16.40;13.73;;;2.90;99.90;;;;;;5108741;28;20730;-70
2021/01/27 09:43:41;;;;;;;14.97;12.97;;;3.10;99.90;;;;;;5108429;28;20241;-70
2021/01/27 09:46:19;;;;;;;14.70;13.13;;;3.10;99.90;;;;;;5108878;28;20205;-70
2021/01/27 09:48:47;;;;;;;18.27;13.53;;;3.20;99.90;;;;;;5108351;28;20624;-70
2021/01/27 09:51:15;;;;;;;16.00;13.27;;;3.40;99.90;;;;;;5108785;28;20206;-70
2021/01/27 09:53:42;;;;;;;15.33;13.00;;;3.50;99.90;;;;;;5108697;27;20214;-70
2021/01/27 09:56:10;;;;;;;16.93;12.97;;;3.60;99.90;;;;;;5108301;28;20718;-70
2021/01/27 09:58:40;;;;;;;16.70;13.43;;;3.70;99.90;;;;;;5108397;28;20238;-70
2021/01/27 10:01:16;;;;;;;15.97;12.77;;;3.80;99.90;;;;;;5108621;28;20202;-70
2021/01/27 10:03:45;;;;;;;15.20;13.13;;;3.90;99.90;;;;;;5108507;27;21162;-70
2021/01/27 10:06:32;;;;;;;15.70;12.77;;;4.00;99.90;;;;;;5108011;28;20221;-69
2021/01/27 10:09:02;;;;;;;16.17;12.97;;;4.10;99.90;;;;;;5108466;28;20212;-69
2021/01/27 10:11:31;;;;;;;16.10;13.40;;;4.20;99.90;;;;;;5108170;28;20656;-69
2021/01/27 10:14:00;;;;;;;15.37;12.13;;;4.20;99.90;;;;;;5108398;28;20285;-69
2021/01/27 10:16:27;;;;;;;17.03;12.57;;;4.30;99.90;;;;;;5108466;28;20218;-69
2021/01/27 10:19:04;;;;;;;14.97;12.57;;;4.50;99.90;;;;;;5108417;28;20209;-69
2021/01/27 10:21:31;;;;;;;14.30;12.80;;;4.50;99.90;;;;;;5108693;28;20209;-69
2021/01/27 10:23:57;;;;;;;14.07;12.23;;;4.60;99.90;;;;;;5108485;28;20284;-69
2021/01/27 10:26:38;;;;;;;15.57;12.83;;;4.70;99.90;;;;;;5108258;28;20209;-69
2021/01/27 10:29:32;;;;;;;13.53;12.13;;;4.70;99.90;;;;;;5108249;28;20210;-69
2021/01/27 10:32:18;;;;;;;14.30;12.00;;;4.80;99.90;;;;;;5108566;28;20205;-71
2021/01/27 10:34:46;;;;;;;14.07;12.00;;;4.90;99.90;;;;;;5108544;28;20209;-69
2021/01/27 10:37:34;;;;;;;13.17;11.57;;;5.00;99.90;;;;;;5108516;28;20251;-69
2021/01/27 10:40:25;;;;;;;12.33;11.13;;;5.10;99.90;;;;;;5108586;28;20198;-69
2021/01/27 10:42:54;;;;;;;10.57;9.53;;;5.20;99.90;;;;;;5108439;28;20423;-69
2021/01/27 10:45:31;;;;;;;10.70;9.17;;;5.20;99.90;;;;;;5108333;28;20259;-69
2021/01/27 10:48:01;;;;;;;9.60;8.70;;;5.20;99.90;;;;;;5108522;28;20206;-69
2021/01/27 10:50:29;;;;;;;9.73;8.73;;;5.30;99.90;;;;;;5108362;28;20194;-69
2021/01/27 10:52:57;;;;;;;9.60;8.60;;;5.20;99.90;;;;;;5107812;28;20293;-69
2021/01/27 10:55:27;;;;;;;10.77;8.43;;;5.20;99.90;;;;;;5108157;28;20221;-69
2021/01/27 10:58:02;;;;;;;8.70;7.90;;;5.30;99.90;;;;;;5107554;28;20238;-69
2021/01/27 11:00:29;;;;;;;9.00;8.10;;;5.40;99.90;;;;;;5108165;28;20197;-69
2021/01/27 11:02:55;;;;;;;8.73;7.93;;;5.40;99.90;;;;;;5107980;28;20238;-69
2021/01/27 11:05:21;;;;;;;9.30;8.40;;;5.50;99.90;;;;;;5108021;28;20286;-69
2021/01/27 11:07:49;;;;;;;9.17;8.20;;;5.40;99.90;;;;;;5107685;28;20226;-69
2021/01/27 11:10:15;;;;;;;9.80;7.40;;;5.50;99.90;;;;;;5108248;28;20217;-69
2021/01/27 11:12:41;;;;;;;9.57;7.47;;;5.50;99.90;;;;;;5107535;28;20304;-69
2021/01/27 11:15:09;;;;;;;9.03;8.13;;;5.50;99.90;;;;;;5108046;28;20202;-69
2021/01/27 11:17:35;;;;;;;9.60;7.90;;;5.40;99.90;;;;;;5107792;28;20221;-69
2021/01/27 11:20:02;;;;;;;8.40;7.60;;;5.30;99.90;;;;;;5111557;28;20209;-69
2021/01/27 11:22:28;;;;;;;8.23;7.43;;;5.20;99.90;;;;;;5111735;28;20237;-69
2021/01/27 11:24:55;;;;;;;7.83;7.13;;;5.30;99.90;;;;;;5111203;28;20612;-69
2021/01/27 11:27:22;;;;;;;9.13;8.20;;;5.30;99.90;;;;;;5111283;28;20213;-69
2021/01/27 11:29:48;;;;;;;9.20;7.93;;;5.40;99.90;;;;;;5111151;28;20206;-69
2021/01/27 11:32:14;;;;;;;10.50;8.33;;;5.40;99.90;;;;;;5111177;28;20664;-69
2021/01/27 11:34:41;;;;;;;9.70;8.27;;;5.50;99.90;;;;;;5110916;28;20573;-69
2021/01/27 11:37:08;;;;;;;8.73;7.83;;;5.50;99.90;;;;;;5111299;28;20205;-69
2021/01/27 11:39:34;;;;;;;8.77;7.90;;;5.50;99.90;;;;;;5111454;28;20210;-69
2021/01/27 11:42:02;;;;;;;8.60;7.67;;;5.40;99.90;;;;;;5111184;28;20225;-69
2021/01/27 11:44:28;;;;;;;7.93;7.23;;;5.40;99.90;;;;;;5111526;28;20279;-69
2021/01/27 11:46:54;;;;;;;8.07;7.30;;;5.40;99.90;;;;;;5110917;28;20206;-69
2021/01/27 11:49:21;;;;;;;8.07;7.27;;;5.50;99.90;;;;;;5111217;28;20229;-69
2021/01/27 11:51:48;;;;;;;8.83;8.03;;;5.50;99.90;;;;;;5111213;28;20186;-69
2021/01/27 11:54:14;;;;;;;7.77;7.07;;;5.60;99.90;;;;;;5111272;28;20239;-69
2021/01/27 11:56:41;;;;;;;7.93;7.23;;;5.70;99.90;;;;;;5110591;28;20206;-69
2021/01/27 11:59:08;;;;;;;7.20;6.53;;;5.70;99.90;;;;;;5110575;28;20939;-69
2021/01/27 12:01:35;;;;;;;8.17;6.90;;;5.80;99.90;;;;;;5111108;28;20225;-69
2021/01/27 12:04:02;;;;;;;8.07;7.23;;;5.90;99.90;;;;;;5110864;28;20237;-70
2021/01/27 12:06:29;;;;;;;7.77;7.03;;;6.10;99.90;;;;;;5110732;28;20599;-69
2021/01/27 12:08:55;;;;;;;8.17;7.47;;;6.20;99.90;;;;;;5110802;28;20208;-69
2021/01/27 12:11:21;;;;;;;10.37;7.57;;;6.30;99.90;;;;;;5110601;28;20571;-69
2021/01/27 12:13:48;;;;;;;8.07;7.20;;;6.30;99.90;;;;;;5110519;28;20210;-69
2021/01/27 12:16:15;;;;;;;7.20;6.50;;;6.10;99.90;;;;;;5110472;28;20566;-69
2021/01/27 12:18:42;;;;;;;7.67;6.90;;;6.10;99.90;;;;;;5110595;28;20198;-69
2021/01/27 12:21:09;;;;;;;8.40;6.60;;;6.10;99.90;;;;;;5110724;28;20578;-69
2021/01/27 12:23:35;;;;;;;8.93;7.00;;;6.00;99.90;;;;;;5110247;28;20700;-69
2021/01/27 12:26:02;;;;;;;7.40;6.80;;;5.80;99.90;;;;;;5110419;28;20213;-69
2021/01/27 12:28:28;;;;;;;8.00;6.50;;;5.80;99.90;;;;;;5109996;28;20251;-69
2021/01/27 12:30:54;;;;;;;7.23;6.50;;;5.70;99.90;;;;;;5109950;28;20205;-69
2021/01/27 12:33:21;;;;;;;7.00;6.40;;;5.70;99.90;;;;;;5110326;28;20217;-69
2021/01/27 12:35:48;;;;;;;7.03;6.43;;;5.70;99.90;;;;;;5110149;28;20206;-69
2021/01/27 12:38:15;;;;;;;6.80;6.20;;;5.70;99.90;;;;;;5110400;28;20217;-69
2021/01/27 12:40:41;;;;;;;7.70;6.50;;;5.70;99.90;;;;;;5110098;28;20210;-69
2021/01/27 12:43:07;;;;;;;6.20;5.60;;;5.80;99.90;;;;;;5110081;28;20335;-69
2021/01/27 12:45:34;;;;;;;6.30;5.70;;;5.90;99.90;;;;;;5110116;28;20202;-69
2021/01/27 12:48:00;;;;;;;6.73;5.60;;;6.20;99.90;;;;;;5110121;28;20216;-69
2021/01/27 12:50:27;;;;;;;6.57;5.90;;;6.40;99.90;;;;;;5109888;28;20254;-69
2021/01/27 12:52:53;;;;;;;6.50;5.90;;;6.70;99.90;;;;;;5109973;28;20217;-69
2021/01/27 12:55:21;;;;;;;6.63;6.03;;;6.80;99.90;;;;;;5109881;28;20208;-70
2021/01/27 12:57:47;;;;;;;6.70;6.10;;;6.60;99.90;;;;;;5109330;28;20237;-69
2021/01/27 13:00:17;;;;;;;7.50;6.20;;;6.50;99.90;;;;;;5109972;28;20212;-69
2021/01/27 13:02:43;;;;;;;8.10;6.50;;;6.70;99.90;;;;;;5109268;28;20755;-70
2021/01/27 13:05:11;;;;;;;8.00;6.53;;;6.70;99.90;;;;;;5109929;28;20670;-70
2021/01/27 13:07:38;;;;;;;7.50;6.63;;;6.80;99.90;;;;;;5109648;28;20232;-69
2021/01/27 13:10:08;;;;;;;8.17;7.20;;;6.60;99.90;;;;;;5109344;28;20692;-70